sensor_id;sensor_type;location;lat;lon;timestamp;pressure;altitude;pressure_sealevel;temperature;humidity
61618;BME280;47518;51.776;9.370;2022-12-07T00:01:22;100173.84;;;3.57;93.13
61618;BME280;47518;51.776;9.370;2022-12-07T00:03:49;100170.25;;;3.46;93.81
61618;BME280;47518;51.776;9.370;2022-12-07T00:06:16;100162.47;;;3.43;93.84
61618;BME280;47518;51.776;9.370;2022-12-07T00:08:42;100158.38;;;3.39;93.83
61618;BME280;47518;51.776;9.370;2022-12-07T00:11:10;100158.66;;;3.46;94.44
61618;BME280;47518;51.776;9.370;2022-12-07T00:13:37;100154.31;;;3.55;93.46
61618;BME280;47518;51.776;9.370;2022-12-07T00:18:40;100151.31;;;3.38;93.53
61618;BME280;47518;51.776;9.370;2022-12-07T00:21:11;100147.13;;;3.25;94.17
61618;BME280;47518;51.776;9.370;2022-12-07T00:23:37;100142.81;;;3.43;93.93
61618;BME280;47518;51.776;9.370;2022-12-07T00:26:06;100140.41;;;3.40;93.35
61618;BME280;47518;51.776;9.370;2022-12-07T00:28:32;100134.38;;;3.47;93.97
61618;BME280;47518;51.776;9.370;2022-12-07T00:31:02;100129.09;;;3.36;94.08
61618;BME280;47518;51.776;9.370;2022-12-07T00:33:28;100115.66;;;3.36;93.62
61618;BME280;47518;51.776;9.370;2022-12-07T00:35:56;100117.88;;;3.31;94.00
61618;BME280;47518;51.776;9.370;2022-12-07T00:38:22;100121.88;;;3.37;94.93
61618;BME280;47518;51.776;9.370;2022-12-07T00:40:55;100122.72;;;3.37;95.20
61618;BME280;47518;51.776;9.370;2022-12-07T00:43:21;100123.16;;;3.42;94.01
61618;BME280;47518;51.776;9.370;2022-12-07T00:45:47;100121.47;;;3.41;94.54
61618;BME280;47518;51.776;9.370;2022-12-07T00:48:12;100124.16;;;3.41;94.29
61618;BME280;47518;51.776;9.370;2022-12-07T00:50:37;100119.63;;;3.42;94.68
61618;BME280;47518;51.776;9.370;2022-12-07T00:53:02;100119.09;;;3.58;94.11
61618;BME280;47518;51.776;9.370;2022-12-07T00:55:28;100110.47;;;3.54;94.27
61618;BME280;47518;51.776;9.370;2022-12-07T00:57:53;100119.00;;;3.59;93.46
61618;BME280;47518;51.776;9.370;2022-12-07T01:00:18;100113.47;;;3.61;94.15
61618;BME280;47518;51.776;9.370;2022-12-07T01:02:44;100105.28;;;3.62;93.74
61618;BME280;47518;51.776;9.370;2022-12-07T01:05:09;100095.78;;;3.68;94.38
61618;BME280;47518;51.776;9.370;2022-12-07T01:07:34;100099.31;;;3.68;93.41
61618;BME280;47518;51.776;9.370;2022-12-07T01:09:59;100102.16;;;3.67;93.61
61618;BME280;47518;51.776;9.370;2022-12-07T01:12:25;100099.47;;;3.67;93.24
61618;BME280;47518;51.776;9.370;2022-12-07T01:14:50;100095.34;;;3.53;94.39
61618;BME280;47518;51.776;9.370;2022-12-07T01:17:15;100095.22;;;3.64;93.81
61618;BME280;47518;51.776;9.370;2022-12-07T01:19:41;100097.50;;;3.69;93.05
61618;BME280;47518;51.776;9.370;2022-12-07T01:22:06;100096.78;;;3.67;93.59
61618;BME280;47518;51.776;9.370;2022-12-07T01:24:31;100091.22;;;3.59;93.61
61618;BME280;47518;51.776;9.370;2022-12-07T01:26:56;100105.94;;;3.55;93.93
61618;BME280;47518;51.776;9.370;2022-12-07T01:29:22;100102.53;;;3.53;94.14
61618;BME280;47518;51.776;9.370;2022-12-07T01:31:48;100097.34;;;3.61;94.48
61618;BME280;47518;51.776;9.370;2022-12-07T01:34:14;100100.28;;;3.48;94.75
61618;BME280;47518;51.776;9.370;2022-12-07T01:36:39;100100.56;;;3.55;94.32
61618;BME280;47518;51.776;9.370;2022-12-07T01:39:06;100101.56;;;3.54;94.95
61618;BME280;47518;51.776;9.370;2022-12-07T01:41:34;100105.50;;;3.49;94.70
61618;BME280;47518;51.776;9.370;2022-12-07T01:44:22;100104.25;;;3.54;94.84
61618;BME280;47518;51.776;9.370;2022-12-07T01:46:50;100108.91;;;3.51;94.28
61618;BME280;47518;51.776;9.370;2022-12-07T01:52:01;100102.72;;;3.61;93.35
61618;BME280;47518;51.776;9.370;2022-12-07T01:54:28;100108.66;;;3.64;93.88
61618;BME280;47518;51.776;9.370;2022-12-07T01:56:56;100113.06;;;3.65;93.77
61618;BME280;47518;51.776;9.370;2022-12-07T01:59:23;100112.09;;;3.76;93.63
61618;BME280;47518;51.776;9.370;2022-12-07T02:01:51;100111.56;;;3.82;93.09
61618;BME280;47518;51.776;9.370;2022-12-07T02:04:18;100106.16;;;3.92;93.23
61618;BME280;47518;51.776;9.370;2022-12-07T02:06:44;100096.66;;;3.78;92.79
61618;BME280;47518;51.776;9.370;2022-12-07T02:09:10;100098.34;;;3.79;92.88
61618;BME280;47518;51.776;9.370;2022-12-07T02:11:35;100092.09;;;3.69;93.34
61618;BME280;47518;51.776;9.370;2022-12-07T02:14:01;100095.53;;;3.71;93.90
61618;BME280;47518;51.776;9.370;2022-12-07T02:16:48;100092.56;;;3.74;93.78
61618;BME280;47518;51.776;9.370;2022-12-07T02:22:08;100079.25;;;3.72;93.89
61618;BME280;47518;51.776;9.370;2022-12-07T02:24:52;100071.91;;;3.84;93.51
61618;BME280;47518;51.776;9.370;2022-12-07T02:27:47;100082.50;;;3.76;93.58
61618;BME280;47518;51.776;9.370;2022-12-07T02:30:19;100080.69;;;3.76;94.22
61618;BME280;47518;51.776;9.370;2022-12-07T02:33:05;100080.25;;;3.71;94.99
61618;BME280;47518;51.776;9.370;2022-12-07T02:35:37;100077.50;;;3.52;95.32
61618;BME280;47518;51.776;9.370;2022-12-07T02:38:23;100073.16;;;3.61;97.01
61618;BME280;47518;51.776;9.370;2022-12-07T02:40:57;100069.63;;;3.60;96.54
61618;BME280;47518;51.776;9.370;2022-12-07T02:43:28;100070.75;;;3.67;97.76
61618;BME280;47518;51.776;9.370;2022-12-07T02:46:01;100065.09;;;3.70;97.94
61618;BME280;47518;51.776;9.370;2022-12-07T02:48:27;100076.34;;;3.45;98.46
61618;BME280;47518;51.776;9.370;2022-12-07T02:50:54;100072.97;;;3.53;99.17
61618;BME280;47518;51.776;9.370;2022-12-07T02:53:40;100074.16;;;3.79;98.81
61618;BME280;47518;51.776;9.370;2022-12-07T02:58:54;100074.31;;;3.87;99.14
61618;BME280;47518;51.776;9.370;2022-12-07T03:01:32;100063.97;;;3.73;98.00
61618;BME280;47518;51.776;9.370;2022-12-07T03:04:11;100062.28;;;3.91;98.27
61618;BME280;47518;51.776;9.370;2022-12-07T03:06:44;100052.69;;;4.08;97.83
61618;BME280;47518;51.776;9.370;2022-12-07T03:09:20;100065.16;;;4.09;96.54
61618;BME280;47518;51.776;9.370;2022-12-07T03:11:51;100067.00;;;4.18;97.16
61618;BME280;47518;51.776;9.370;2022-12-07T03:14:25;100072.47;;;3.78;97.55
61618;BME280;47518;51.776;9.370;2022-12-07T03:17:03;100066.69;;;4.02;97.79
61618;BME280;47518;51.776;9.370;2022-12-07T03:19:32;100074.31;;;3.77;97.30
61618;BME280;47518;51.776;9.370;2022-12-07T03:22:02;100069.63;;;3.60;98.14
61618;BME280;47518;51.776;9.370;2022-12-07T03:24:37;100070.22;;;3.83;97.54
61618;BME280;47518;51.776;9.370;2022-12-07T03:27:18;100061.88;;;3.86;97.37
61618;BME280;47518;51.776;9.370;2022-12-07T03:29:50;100060.00;;;3.67;97.95
61618;BME280;47518;51.776;9.370;2022-12-07T03:32:24;100060.59;;;3.90;97.77
61618;BME280;47518;51.776;9.370;2022-12-07T03:37:53;100048.13;;;3.89;96.99
61618;BME280;47518;51.776;9.370;2022-12-07T03:43:27;100056.91;;;4.01;95.29
61618;BME280;47518;51.776;9.370;2022-12-07T03:46:02;100055.78;;;4.13;95.89
61618;BME280;47518;51.776;9.370;2022-12-07T03:48:35;100059.19;;;4.25;95.37
61618;BME280;47518;51.776;9.370;2022-12-07T03:51:12;100061.88;;;4.15;95.72
61618;BME280;47518;51.776;9.370;2022-12-07T03:53:42;100059.19;;;3.96;95.48
61618;BME280;47518;51.776;9.370;2022-12-07T03:56:09;100056.50;;;4.25;95.30
61618;BME280;47518;51.776;9.370;2022-12-07T03:58:36;100058.19;;;4.26;95.14
61618;BME280;47518;51.776;9.370;2022-12-07T04:01:02;100062.47;;;4.28;94.90
61618;BME280;47518;51.776;9.370;2022-12-07T04:03:28;100047.88;;;4.41;94.47
61618;BME280;47518;51.776;9.370;2022-12-07T04:05:53;100055.66;;;4.24;94.46
61618;BME280;47518;51.776;9.370;2022-12-07T04:08:19;100052.69;;;4.18;94.93
61618;BME280;47518;51.776;9.370;2022-12-07T04:10:44;100056.63;;;4.14;94.66
61618;BME280;47518;51.776;9.370;2022-12-07T04:13:10;100056.34;;;4.26;94.36
61618;BME280;47518;51.776;9.370;2022-12-07T04:15:35;100048.13;;;4.28;93.95
61618;BME280;47518;51.776;9.370;2022-12-07T04:18:00;100052.09;;;4.33;94.36
61618;BME280;47518;51.776;9.370;2022-12-07T04:20:25;100051.66;;;4.38;93.46
61618;BME280;47518;51.776;9.370;2022-12-07T04:22:51;100058.19;;;4.35;93.81
61618;BME280;47518;51.776;9.370;2022-12-07T04:25:16;100056.78;;;4.41;93.42
61618;BME280;47518;51.776;9.370;2022-12-07T04:27:41;100057.91;;;4.38;94.07
61618;BME280;47518;51.776;9.370;2022-12-07T04:30:07;100052.78;;;4.55;93.40
61618;BME280;47518;51.776;9.370;2022-12-07T04:32:32;100055.94;;;4.41;93.92
61618;BME280;47518;51.776;9.370;2022-12-07T04:34:58;100054.94;;;4.42;94.14
61618;BME280;47518;51.776;9.370;2022-12-07T04:37:23;100056.34;;;4.36;94.24
61618;BME280;47518;51.776;9.370;2022-12-07T04:39:49;100059.19;;;4.34;94.19
61618;BME280;47518;51.776;9.370;2022-12-07T04:42:14;100052.41;;;4.40;93.79
61618;BME280;47518;51.776;9.370;2022-12-07T04:44:40;100061.19;;;4.23;93.67
61618;BME280;47518;51.776;9.370;2022-12-07T04:47:05;100056.34;;;4.36;94.77
61618;BME280;47518;51.776;9.370;2022-12-07T04:49:30;100050.97;;;4.26;95.04
61618;BME280;47518;51.776;9.370;2022-12-07T04:51:56;100062.03;;;4.33;94.83
61618;BME280;47518;51.776;9.370;2022-12-07T04:54:21;100055.63;;;4.44;93.88
61618;BME280;47518;51.776;9.370;2022-12-07T04:56:47;100055.78;;;4.32;93.83
61618;BME280;47518;51.776;9.370;2022-12-07T04:59:13;100054.66;;;4.35;94.21
61618;BME280;47518;51.776;9.370;2022-12-07T05:01:39;100057.19;;;4.27;95.03
61618;BME280;47518;51.776;9.370;2022-12-07T05:04:05;100052.09;;;4.43;94.51
61618;BME280;47518;51.776;9.370;2022-12-07T05:06:30;100052.50;;;4.48;93.94
61618;BME280;47518;51.776;9.370;2022-12-07T05:08:55;100058.47;;;4.42;94.66
61618;BME280;47518;51.776;9.370;2022-12-07T05:35:39;100048.72;;;4.12;98.45
61618;BME280;47518;51.776;9.370;2022-12-07T05:38:05;100043.63;;;4.28;96.75
61618;BME280;47518;51.776;9.370;2022-12-07T05:40:30;100049.41;;;4.43;95.48
61618;BME280;47518;51.776;9.370;2022-12-07T05:42:56;100048.25;;;4.46;94.98
61618;BME280;47518;51.776;9.370;2022-12-07T05:45:21;100042.47;;;4.41;95.02
61618;BME280;47518;51.776;9.370;2022-12-07T05:47:46;100033.41;;;4.42;94.60
61618;BME280;47518;51.776;9.370;2022-12-07T05:50:11;100033.56;;;4.40;94.75
61618;BME280;47518;51.776;9.370;2022-12-07T05:52:37;100036.06;;;4.51;93.65
61618;BME280;47518;51.776;9.370;2022-12-07T05:55:02;100032.69;;;4.39;93.21
61618;BME280;47518;51.776;9.370;2022-12-07T05:57:27;100031.03;;;4.19;94.40
61618;BME280;47518;51.776;9.370;2022-12-07T05:59:53;100028.59;;;4.26;94.60
61618;BME280;47518;51.776;9.370;2022-12-07T06:02:18;100027.75;;;4.35;94.35
61618;BME280;47518;51.776;9.370;2022-12-07T06:04:46;100027.75;;;4.35;94.25
61618;BME280;47518;51.776;9.370;2022-12-07T06:07:13;100034.56;;;4.00;93.85
61618;BME280;47518;51.776;9.370;2022-12-07T06:09:38;100028.00;;;3.55;95.53
61618;BME280;47518;51.776;9.370;2022-12-07T06:12:05;100038.34;;;3.59;95.54
61618;BME280;47518;51.776;9.370;2022-12-07T06:14:51;100029.44;;;3.78;96.01
61618;BME280;47518;51.776;9.370;2022-12-07T06:17:16;100032.84;;;3.90;94.84
61618;BME280;47518;51.776;9.370;2022-12-07T06:19:42;100032.41;;;3.75;94.04
61618;BME280;47518;51.776;9.370;2022-12-07T06:22:07;100038.34;;;3.78;94.77
61618;BME280;47518;51.776;9.370;2022-12-07T06:24:34;100038.25;;;3.99;94.49
61618;BME280;47518;51.776;9.370;2022-12-07T06:26:59;100031.00;;;3.90;94.17
61618;BME280;47518;51.776;9.370;2022-12-07T06:29:25;100027.78;;;3.96;94.13
61618;BME280;47518;51.776;9.370;2022-12-07T06:31:50;100029.16;;;3.81;94.03
61618;BME280;47518;51.776;9.370;2022-12-07T06:34:18;100033.97;;;3.68;94.58
61618;BME280;47518;51.776;9.370;2022-12-07T06:36:45;100030.53;;;3.56;95.46
61618;BME280;47518;51.776;9.370;2022-12-07T06:39:11;100032.69;;;3.91;94.84
61618;BME280;47518;51.776;9.370;2022-12-07T06:41:37;100033.72;;;4.09;93.49
61618;BME280;47518;51.776;9.370;2022-12-07T06:44:05;100034.56;;;4.00;92.88
61618;BME280;47518;51.776;9.370;2022-12-07T06:46:31;100040.50;;;3.75;93.65
61618;BME280;47518;51.776;9.370;2022-12-07T06:48:57;100040.50;;;3.75;94.08
61618;BME280;47518;51.776;9.370;2022-12-07T06:51:22;100041.47;;;4.03;93.17
61618;BME280;47518;51.776;9.370;2022-12-07T06:53:47;100039.06;;;3.90;94.10
61618;BME280;47518;51.776;9.370;2022-12-07T06:56:13;100033.97;;;4.26;92.33
61618;BME280;47518;51.776;9.370;2022-12-07T06:58:39;100049.13;;;4.27;92.16
61618;BME280;47518;51.776;9.370;2022-12-07T07:01:12;100042.22;;;3.95;91.63
61618;BME280;47518;51.776;9.370;2022-12-07T07:03:37;100045.75;;;3.86;93.29
61618;BME280;47518;51.776;9.370;2022-12-07T07:06:03;100050.13;;;3.87;92.57
61618;BME280;47518;51.776;9.370;2022-12-07T07:08:29;100046.16;;;4.10;92.52
61618;BME280;47518;51.776;9.370;2022-12-07T07:10:54;100051.00;;;4.07;92.55
61618;BME280;47518;51.776;9.370;2022-12-07T07:13:19;100048.69;;;3.93;92.02
61618;BME280;47518;51.776;9.370;2022-12-07T07:15:44;100059.19;;;3.96;91.41
61618;BME280;47518;51.776;9.370;2022-12-07T07:18:10;100061.56;;;3.79;92.08
61618;BME280;47518;51.776;9.370;2022-12-07T07:20:36;100059.06;;;3.97;92.18
61618;BME280;47518;51.776;9.370;2022-12-07T07:23:01;100063.00;;;3.93;91.77
61618;BME280;47518;51.776;9.370;2022-12-07T07:25:28;100069.34;;;3.73;93.13
61618;BME280;47518;51.776;9.370;2022-12-07T07:27:53;100072.47;;;3.78;93.48
61618;BME280;47518;51.776;9.370;2022-12-07T07:30:19;100064.84;;;4.12;91.83
61618;BME280;47518;51.776;9.370;2022-12-07T07:32:44;100066.13;;;3.98;91.49
61618;BME280;47518;51.776;9.370;2022-12-07T07:35:10;100069.50;;;3.91;92.01
61618;BME280;47518;51.776;9.370;2022-12-07T07:37:36;100065.97;;;4.00;91.48
61618;BME280;47518;51.776;9.370;2022-12-07T07:40:01;100065.28;;;4.07;90.54
61618;BME280;47518;51.776;9.370;2022-12-07T07:42:26;100066.56;;;3.94;90.59
61618;BME280;47518;51.776;9.370;2022-12-07T07:44:51;100073.19;;;3.99;90.90
61618;BME280;47518;51.776;9.370;2022-12-07T07:47:17;100071.94;;;4.13;90.32
61618;BME280;47518;51.776;9.370;2022-12-07T07:49:42;100071.38;;;4.29;90.01
61618;BME280;47518;51.776;9.370;2022-12-07T07:52:07;100066.84;;;4.10;90.26
61618;BME280;47518;51.776;9.370;2022-12-07T07:54:32;100072.78;;;3.94;90.11
61618;BME280;47518;51.776;9.370;2022-12-07T07:56:58;100066.53;;;4.03;90.53
61618;BME280;47518;51.776;9.370;2022-12-07T07:59:23;100083.09;;;3.89;91.15
61618;BME280;47518;51.776;9.370;2022-12-07T08:01:49;100085.22;;;3.86;92.15
61618;BME280;47518;51.776;9.370;2022-12-07T08:04:15;100092.47;;;3.95;91.45
61618;BME280;47518;51.776;9.370;2022-12-07T08:06:41;100085.25;;;3.95;91.75
61618;BME280;47518;51.776;9.370;2022-12-07T08:09:07;100085.22;;;4.05;91.71
61618;BME280;47518;51.776;9.370;2022-12-07T08:11:33;100081.00;;;4.12;91.13
61618;BME280;47518;51.776;9.370;2022-12-07T08:13:58;100083.81;;;3.91;91.94
61618;BME280;47518;51.776;9.370;2022-12-07T08:16:23;100087.78;;;3.87;92.27
61618;BME280;47518;51.776;9.370;2022-12-07T08:18:49;100085.50;;;3.73;91.88
61618;BME280;47518;51.776;9.370;2022-12-07T08:21:14;100092.72;;;3.92;92.05
61618;BME280;47518;51.776;9.370;2022-12-07T08:23:40;100087.19;;;3.93;90.81
61618;BME280;47518;51.776;9.370;2022-12-07T08:26:09;100081.97;;;4.01;90.45
61618;BME280;47518;51.776;9.370;2022-12-07T08:28:34;100085.94;;;4.36;90.44
61618;BME280;47518;51.776;9.370;2022-12-07T08:31:02;100089.78;;;4.43;89.68
61618;BME280;47518;51.776;9.370;2022-12-07T08:33:28;100090.91;;;4.31;90.26
61618;BME280;47518;51.776;9.370;2022-12-07T08:35:53;100092.19;;;4.17;90.48
61618;BME280;47518;51.776;9.370;2022-12-07T08:38:19;100090.34;;;4.08;91.36
61618;BME280;47518;51.776;9.370;2022-12-07T08:40:53;100081.69;;;4.14;90.65
61618;BME280;47518;51.776;9.370;2022-12-07T08:43:18;100079.56;;;4.27;88.67
61618;BME280;47518;51.776;9.370;2022-12-07T08:45:43;100084.25;;;4.06;89.29
61618;BME280;47518;51.776;9.370;2022-12-07T08:48:11;100087.19;;;3.74;91.72
61618;BME280;47518;51.776;9.370;2022-12-07T08:50:37;100089.31;;;3.80;91.14
61618;BME280;47518;51.776;9.370;2022-12-07T08:53:04;100091.44;;;3.86;91.46
61618;BME280;47518;51.776;9.370;2022-12-07T08:55:30;100086.91;;;3.87;92.25
61618;BME280;47518;51.776;9.370;2022-12-07T08:57:58;100089.34;;;4.09;90.63
61618;BME280;47518;51.776;9.370;2022-12-07T09:00:24;100090.03;;;4.01;90.86
61618;BME280;47518;51.776;9.370;2022-12-07T09:02:49;100091.16;;;3.89;90.23
61618;BME280;47518;51.776;9.370;2022-12-07T09:05:14;100092.47;;;3.95;89.78
61618;BME280;47518;51.776;9.370;2022-12-07T09:07:41;100086.22;;;3.94;90.43
61618;BME280;47518;51.776;9.370;2022-12-07T09:10:07;100080.09;;;3.73;91.15
61618;BME280;47518;51.776;9.370;2022-12-07T09:12:32;100079.50;;;3.69;91.77
61618;BME280;47518;51.776;9.370;2022-12-07T09:14:57;100078.34;;;3.53;92.33
61618;BME280;47518;51.776;9.370;2022-12-07T09:17:23;100084.53;;;3.84;91.05
61618;BME280;47518;51.776;9.370;2022-12-07T09:19:48;100078.72;;;3.98;90.16
61618;BME280;47518;51.776;9.370;2022-12-07T09:22:13;100086.25;;;4.23;90.04
61618;BME280;47518;51.776;9.370;2022-12-07T09:24:39;100089.75;;;4.04;89.69
61618;BME280;47518;51.776;9.370;2022-12-07T09:27:04;100097.41;;;3.99;89.59
61618;BME280;47518;51.776;9.370;2022-12-07T09:29:29;100094.59;;;4.20;89.19
61618;BME280;47518;51.776;9.370;2022-12-07T09:31:54;100099.66;;;4.04;89.09
61618;BME280;47518;51.776;9.370;2022-12-07T09:34:20;100105.91;;;4.04;89.71
61618;BME280;47518;51.776;9.370;2022-12-07T09:36:46;100110.03;;;4.08;88.56
61618;BME280;47518;51.776;9.370;2022-12-07T09:39:11;100103.50;;;4.11;88.39
61618;BME280;47518;51.776;9.370;2022-12-07T09:41:38;100107.63;;;4.05;88.78
61618;BME280;47518;51.776;9.370;2022-12-07T09:44:09;100099.66;;;4.04;89.54
61618;BME280;47518;51.776;9.370;2022-12-07T09:46:39;100098.97;;;3.83;90.98
61618;BME280;47518;51.776;9.370;2022-12-07T09:49:11;100104.31;;;3.92;89.85
61618;BME280;47518;51.776;9.370;2022-12-07T09:51:37;100101.22;;;3.87;90.10
61618;BME280;47518;51.776;9.370;2022-12-07T09:54:02;100108.88;;;3.82;89.83
61618;BME280;47518;51.776;9.370;2022-12-07T09:56:29;100106.25;;;3.61;91.75
61618;BME280;47518;51.776;9.370;2022-12-07T09:58:59;100104.31;;;3.73;91.22
61618;BME280;47518;51.776;9.370;2022-12-07T10:01:29;100094.69;;;3.80;89.72
61618;BME280;47518;51.776;9.370;2022-12-07T10:04:09;100091.84;;;3.72;90.39
61618;BME280;47518;51.776;9.370;2022-12-07T10:06:35;100096.00;;;3.95;91.00
61618;BME280;47518;51.776;9.370;2022-12-07T10:09:00;100094.69;;;3.90;89.99
61618;BME280;47518;51.776;9.370;2022-12-07T10:11:25;100086.06;;;3.76;90.64
61618;BME280;47518;51.776;9.370;2022-12-07T10:13:52;100089.75;;;3.85;89.76
61618;BME280;47518;51.776;9.370;2022-12-07T10:16:38;100076.03;;;3.98;90.01
61618;BME280;47518;51.776;9.370;2022-12-07T10:19:24;100080.31;;;4.29;89.02
61618;BME280;47518;51.776;9.370;2022-12-07T10:22:11;100079.41;;;5.14;84.36
61618;BME280;47518;51.776;9.370;2022-12-07T10:24:38;100081.00;;;5.90;82.11
61618;BME280;47518;51.776;9.370;2022-12-07T10:27:17;100085.28;;;5.00;81.79
61618;BME280;47518;51.776;9.370;2022-12-07T10:29:48;100081.47;;;4.83;83.28
61618;BME280;47518;51.776;9.370;2022-12-07T10:35:18;100078.13;;;5.18;83.04
61618;BME280;47518;51.776;9.370;2022-12-07T10:37:44;100072.84;;;5.54;82.06
61618;BME280;47518;51.776;9.370;2022-12-07T10:40:32;100078.44;;;5.98;78.53
61618;BME280;47518;51.776;9.370;2022-12-07T10:46:06;100067.69;;;4.96;82.66
61618;BME280;47518;51.776;9.370;2022-12-07T10:49:03;100067.03;;;4.84;84.38
61618;BME280;47518;51.776;9.370;2022-12-07T10:57:04;100077.78;;;4.84;83.29
61618;BME280;47518;51.776;9.370;2022-12-07T10:59:48;100070.78;;;4.64;83.12
61618;BME280;47518;51.776;9.370;2022-12-07T11:02:35;100068.34;;;4.51;84.85
61618;BME280;47518;51.776;9.370;2022-12-07T11:08:39;100076.44;;;4.51;84.79
61618;BME280;47518;51.776;9.370;2022-12-07T11:11:16;100065.13;;;4.38;85.56
61618;BME280;47518;51.776;9.370;2022-12-07T11:13:56;100064.28;;;4.37;84.49
61618;BME280;47518;51.776;9.370;2022-12-07T11:16:37;100052.81;;;4.45;85.41
61618;BME280;47518;51.776;9.370;2022-12-07T11:19:17;100052.66;;;4.37;86.33
61618;BME280;47518;51.776;9.370;2022-12-07T11:21:56;100050.69;;;4.10;87.23
61618;BME280;47518;51.776;9.370;2022-12-07T11:24:48;100050.09;;;4.55;85.81
61618;BME280;47518;51.776;9.370;2022-12-07T11:30:23;100045.06;;;4.89;84.85
61618;BME280;47518;51.776;9.370;2022-12-07T11:36:02;100040.81;;;4.86;84.11
61618;BME280;47518;51.776;9.370;2022-12-07T11:38:40;100037.88;;;4.60;84.45
61618;BME280;47518;51.776;9.370;2022-12-07T11:41:08;100025.97;;;4.63;83.84
61618;BME280;47518;51.776;9.370;2022-12-07T11:43:48;100028.72;;;4.44;84.88
61618;BME280;47518;51.776;9.370;2022-12-07T11:46:15;100022.75;;;4.50;85.33
61618;BME280;47518;51.776;9.370;2022-12-07T11:48:47;100021.47;;;4.63;85.40
61618;BME280;47518;51.776;9.370;2022-12-07T11:51:16;100020.72;;;4.61;83.74
61618;BME280;47518;51.776;9.370;2022-12-07T11:53:48;100023.78;;;4.86;84.38
61618;BME280;47518;51.776;9.370;2022-12-07T11:56:17;100023.75;;;4.95;83.22
61618;BME280;47518;51.776;9.370;2022-12-07T12:01:45;100011.56;;;4.45;85.61
61618;BME280;47518;51.776;9.370;2022-12-07T12:04:40;100021.81;;;4.22;85.90
61618;BME280;47518;51.776;9.370;2022-12-07T12:07:09;100016.84;;;4.27;85.86
61618;BME280;47518;51.776;9.370;2022-12-07T12:09:48;100016.63;;;4.67;85.24
61618;BME280;47518;51.776;9.370;2022-12-07T12:20:57;100003.28;;;4.75;85.29
61618;BME280;47518;51.776;9.370;2022-12-07T12:23:39;99997.47;;;4.70;84.91
61618;BME280;47518;51.776;9.370;2022-12-07T12:26:08;99997.63;;;4.68;84.12
61618;BME280;47518;51.776;9.370;2022-12-07T12:28:41;100001.88;;;4.61;84.52
61618;BME280;47518;51.776;9.370;2022-12-07T12:31:29;99993.06;;;5.06;82.57
61618;BME280;47518;51.776;9.370;2022-12-07T12:33:58;99988.59;;;5.24;81.46
61618;BME280;47518;51.776;9.370;2022-12-07T12:47:51;99986.00;;;5.33;80.36
61618;BME280;47518;51.776;9.370;2022-12-07T12:50:24;99989.81;;;5.12;80.69
61618;BME280;47518;51.776;9.370;2022-12-07T12:53:12;99973.44;;;5.23;80.59
61618;BME280;47518;51.776;9.370;2022-12-07T12:58:33;99973.47;;;5.77;79.99
61618;BME280;47518;51.776;9.370;2022-12-07T13:04:17;99953.41;;;5.44;79.10
61618;BME280;47518;51.776;9.370;2022-12-07T13:06:46;99970.56;;;5.25;78.82
61618;BME280;47518;51.776;9.370;2022-12-07T13:09:22;99966.25;;;5.32;79.34
61618;BME280;47518;51.776;9.370;2022-12-07T13:11:48;99960.53;;;5.17;79.74
61618;BME280;47518;51.776;9.370;2022-12-07T13:14:40;99957.97;;;4.98;80.73
61618;BME280;47518;51.776;9.370;2022-12-07T13:17:10;99963.94;;;4.92;81.00
61618;BME280;47518;51.776;9.370;2022-12-07T13:25:12;99957.91;;;4.80;81.20
61618;BME280;47518;51.776;9.370;2022-12-07T13:27:48;99954.50;;;4.78;80.91
61618;BME280;47518;51.776;9.370;2022-12-07T13:30:19;99966.19;;;4.96;79.33
61618;BME280;47518;51.776;9.370;2022-12-07T13:32:54;99969.31;;;4.92;80.73
61618;BME280;47518;51.776;9.370;2022-12-07T13:38:22;99948.00;;;4.71;81.33
61618;BME280;47518;51.776;9.370;2022-12-07T13:41:12;99952.78;;;4.87;80.13
61618;BME280;47518;51.776;9.370;2022-12-07T13:43:53;99953.81;;;4.76;80.49
61618;BME280;47518;51.776;9.370;2022-12-07T13:46:23;99953.63;;;4.87;79.73
61618;BME280;47518;51.776;9.370;2022-12-07T13:48:50;99959.09;;;4.68;81.14
61618;BME280;47518;51.776;9.370;2022-12-07T13:51:19;99957.38;;;4.67;81.18
61618;BME280;47518;51.776;9.370;2022-12-07T13:53:48;99957.31;;;4.86;81.11
61618;BME280;47518;51.776;9.370;2022-12-07T13:56:14;99953.84;;;4.94;80.41
61618;BME280;47518;51.776;9.370;2022-12-07T13:58:41;99937.00;;;4.92;81.10
61618;BME280;47518;51.776;9.370;2022-12-07T14:01:07;99936.19;;;4.54;81.55
61618;BME280;47518;51.776;9.370;2022-12-07T14:03:34;99938.59;;;4.48;81.56
61618;BME280;47518;51.776;9.370;2022-12-07T14:09:16;99934.16;;;4.29;82.39
61618;BME280;47518;51.776;9.370;2022-12-07T14:11:42;99930.53;;;4.48;81.91
61618;BME280;47518;51.776;9.370;2022-12-07T14:14:14;99938.03;;;4.81;80.65
61618;BME280;47518;51.776;9.370;2022-12-07T14:16:41;99929.84;;;4.36;81.54
61618;BME280;47518;51.776;9.370;2022-12-07T14:19:43;99935.78;;;4.39;81.62
61618;BME280;47518;51.776;9.370;2022-12-07T14:22:20;99930.41;;;4.39;81.90
61618;BME280;47518;51.776;9.370;2022-12-07T14:24:45;99924.16;;;4.39;81.64
61618;BME280;47518;51.776;9.370;2022-12-07T14:27:24;99924.78;;;4.33;81.91
61618;BME280;47518;51.776;9.370;2022-12-07T14:29:56;99922.03;;;4.52;81.94
61618;BME280;47518;51.776;9.370;2022-12-07T14:32:26;99931.00;;;4.71;79.98
61618;BME280;47518;51.776;9.370;2022-12-07T14:34:56;99923.72;;;4.81;80.01
61618;BME280;47518;51.776;9.370;2022-12-07T14:37:21;99940.63;;;4.36;81.40
61618;BME280;47518;51.776;9.370;2022-12-07T14:39:46;99923.00;;;4.51;80.69
61618;BME280;47518;51.776;9.370;2022-12-07T14:42:12;99930.41;;;4.39;81.77
61618;BME280;47518;51.776;9.370;2022-12-07T14:44:37;99935.84;;;4.30;81.42
61618;BME280;47518;51.776;9.370;2022-12-07T14:47:02;99931.66;;;4.45;81.00
61618;BME280;47518;51.776;9.370;2022-12-07T14:49:27;99943.53;;;3.96;83.47
61618;BME280;47518;51.776;9.370;2022-12-07T14:51:53;99936.38;;;4.33;82.01
61618;BME280;47518;51.776;9.370;2022-12-07T14:54:19;99930.88;;;4.25;82.05
61618;BME280;47518;51.776;9.370;2022-12-07T14:56:46;99928.53;;;3.93;84.11